Time;durP1;ratioP1;P1;durP2;ratioP2;P2;SDS_P1;SDS_P2;PMS_P1;PMS_P2;Temp;Humidity;BMP_temperature;BMP_pressure;BME280_temperature;BME280_humidity;BME280_pressure;Samples;Min_cycle;Max_cycle;Signal;HPM_P1;HPM_P2
2021/10/20 00:00:51;;;;;;;;;;;;;;;;;;5113549;28;19924;-69
2021/10/20 00:03:17;;;;;;;;;;;;;;;;;;5113538;28;19924;-69
2021/10/20 00:05:44;;;;;;;;;;;;;;;;;;5113204;28;20291;-69
2021/10/20 00:08:10;;;;;;;;;;;;;;;;;;5113131;28;19924;-69
2021/10/20 00:10:36;;;;;;;;;;;;;;;;;;5113908;28;19931;-69
2021/10/20 00:13:03;;;;;;;;;;;;;;;;;;5113293;28;20297;-69
2021/10/20 00:15:29;;;;;;;;;;;;;;;;;;5113267;28;19928;-69
2021/10/20 00:17:55;;;;;;;;;;;;;;;;;;5113269;28;19923;-68
2021/10/20 00:20:23;;;;;;;;;;;;;;;;;;5112956;28;19932;-68
2021/10/20 00:22:49;;;;;;;;;;;;;;;;;;5113417;28;20018;-68
2021/10/20 00:25:16;;;;;;;;;;;;;;;;;;5113146;28;20323;-68
2021/10/20 00:27:42;;;;;;;;;;;;;;;;;;5113004;28;19923;-68
2021/10/20 00:30:08;;;;;;;;;;;;;;;;;;5113145;28;19928;-68
2021/10/20 00:32:34;;;;;;;;;;;;;;;;;;5113018;28;20436;-69
2021/10/20 00:35:01;;;;;;;;;;;;;;;;;;5113316;28;19923;-68
2021/10/20 00:37:27;;;;;;;;;;;;;;;;;;5113315;28;20813;-69
2021/10/20 00:39:53;;;;;;;;;;;;;;;;;;5112957;28;19924;-69
2021/10/20 00:42:21;;;;;;;;;;;;;;;;;;5113063;28;19924;-69
2021/10/20 00:44:47;;;;;;;;;;;;;;;;;;5112864;28;19931;-68
2021/10/20 00:47:13;;;;;;;;;;;;;;;;;;5112870;28;19931;-68
2021/10/20 00:49:40;;;;;;;;;;;;;;;;;;5112899;28;19924;-69
2021/10/20 00:52:06;;;;;;;;;;;;;;;;;;5113101;28;19923;-69
2021/10/20 00:54:32;;;;;;;;;;;;;;;;;;5112996;28;19923;-69
2021/10/20 00:56:59;;;;;;;;;;;;;;;;;;5112592;28;19928;-69
2021/10/20 00:59:25;;;;;;;;;;;;;;;;;;5112327;28;19924;-69
2021/10/20 01:01:51;;;;;;;;;;;;;;;;;;5112731;28;20290;-69
2021/10/20 01:04:17;;;;;;;;;;;;;;;;;;5112364;28;19931;-69
2021/10/20 01:06:44;;;;;;;;;;;;;;;;;;5113004;28;19965;-68
2021/10/20 01:09:10;;;;;;;;;;;;;;;;;;5112298;28;20293;-68
2021/10/20 01:11:36;;;;;;;;;;;;;;;;;;5112653;28;19923;-68
2021/10/20 01:14:03;;;;;;;;;;;;;;;;;;5112940;28;19923;-68
2021/10/20 01:16:29;;;;;;;;;;;;;;;;;;5112378;28;20382;-68
2021/10/20 01:18:55;;;;;;;;;;;;;;;;;;5112450;28;19924;-68
2021/10/20 01:21:22;;;;;;;;;;;;;;;;;;5112651;28;19924;-67
2021/10/20 01:23:48;;;;;;;;;;;;;;;;;;5112545;28;20287;-68
2021/10/20 01:26:14;;;;;;;;;;;;;;;;;;5112240;28;19923;-68
2021/10/20 01:28:40;;;;;;;;;;;;;;;;;;5112646;28;19932;-68
2021/10/20 01:31:07;;;;;;;;;;;;;;;;;;5116310;28;19924;-68
2021/10/20 01:33:33;;;;;;;;;;;;;;;;;;5116703;28;19924;-68
2021/10/20 01:35:59;;;;;;;;;;;;;;;;;;5116431;28;20305;-68
2021/10/20 01:38:26;;;;;;;;;;;;;;;;;;5115942;28;19930;-68
2021/10/20 01:40:52;;;;;;;;;;;;;;;;;;5116681;28;19923;-68
2021/10/20 01:43:18;;;;;;;;;;;;;;;;;;5116064;28;20370;-68
2021/10/20 01:45:44;;;;;;;;;;;;;;;;;;5116146;28;19927;-68
2021/10/20 01:48:11;;;;;;;;;;;;;;;;;;5116215;28;20309;-68
2021/10/20 01:50:37;;;;;;;;;;;;;;;;;;5116238;28;19930;-68
2021/10/20 01:53:03;;;;;;;;;;;;;;;;;;5116173;28;19931;-68
2021/10/20 01:55:30;;;;;;;;;;;;;;;;;;5115995;28;20306;-67
2021/10/20 01:57:56;;;;;;;;;;;;;;;;;;5115700;28;19923;-67
2021/10/20 02:00:22;;;;;;;;;;;;;;;;;;5115976;28;19931;-68
2021/10/20 02:02:49;;;;;;;;;;;;;;;;;;5116051;28;20007;-68
2021/10/20 02:05:15;;;;;;;;;;;;;;;;;;5115352;28;19931;-69
2021/10/20 02:07:41;;;;;;;;;;;;;;;;;;5116077;28;19924;-68
2021/10/20 02:10:07;;;;;;;;;;;;;;;;;;5115576;28;20294;-68
2021/10/20 02:12:34;;;;;;;;;;;;;;;;;;5115717;28;20510;-69
2021/10/20 02:15:00;;;;;;;;;;;;;;;;;;5115508;28;19935;-68
2021/10/20 02:17:26;;;;;;;;;;;;;;;;;;5115605;28;19947;-68
2021/10/20 02:19:53;;;;;;;;;;;;;;;;;;5115378;28;19924;-68
2021/10/20 02:22:19;;;;;;;;;;;;;;;;;;5115526;28;19931;-68
2021/10/20 02:24:45;;;;;;;;;;;;;;;;;;5115278;28;20374;-69
2021/10/20 02:27:11;;;;;;;;;;;;;;;;;;5115146;28;19924;-69
2021/10/20 02:29:38;;;;;;;;;;;;;;;;;;5115774;28;19951;-68
2021/10/20 02:32:04;;;;;;;;;;;;;;;;;;5115200;28;19924;-69
2021/10/20 02:34:30;;;;;;;;;;;;;;;;;;5115274;28;19927;-68
2021/10/20 02:36:57;;;;;;;;;;;;;;;;;;5115416;28;19946;-68
2021/10/20 02:39:23;;;;;;;;;;;;;;;;;;5114879;28;19924;-69
2021/10/20 02:41:49;;;;;;;;;;;;;;;;;;5115187;28;20022;-69
2021/10/20 02:44:16;;;;;;;;;;;;;;;;;;5115081;28;19923;-69
2021/10/20 02:46:42;;;;;;;;;;;;;;;;;;5114943;28;19924;-69
2021/10/20 02:49:08;;;;;;;;;;;;;;;;;;5114946;28;19943;-69
2021/10/20 02:51:35;;;;;;;;;;;;;;;;;;5115252;28;19924;-67
2021/10/20 02:54:01;;;;;;;;;;;;;;;;;;5115195;28;19935;-68
2021/10/20 02:56:27;;;;;;;;;;;;;;;;;;5114459;28;20651;-68
2021/10/20 02:58:53;;;;;;;;;;;;;;;;;;5114562;28;19923;-68
2021/10/20 03:01:20;;;;;;;;;;;;;;;;;;5114738;28;19947;-68
2021/10/20 03:03:46;;;;;;;;;;;;;;;;;;5114753;28;19924;-69
2021/10/20 03:06:13;;;;;;;;;;;;;;;;;;5114172;28;20377;-68
2021/10/20 03:08:39;;;;;;;;;;;;;;;;;;5115062;28;19997;-68
2021/10/20 03:11:05;;;;;;;;;;;;;;;;;;5114734;28;20285;-68
2021/10/20 03:13:31;;;;;;;;;;;;;;;;;;5114240;28;19928;-68
2021/10/20 03:15:58;;;;;;;;;;;;;;;;;;5114785;28;19931;-68
2021/10/20 03:18:24;;;;;;;;;;;;;;;;;;5114070;28;20378;-68
2021/10/20 03:20:50;;;;;;;;;;;;;;;;;;5114320;28;19946;-68
2021/10/20 03:23:17;;;;;;;;;;;;;;;;;;5114312;28;19931;-69
2021/10/20 03:25:43;;;;;;;;;;;;;;;;;;5114481;28;19924;-68
2021/10/20 03:28:09;;;;;;;;;;;;;;;;;;5114172;28;19924;-68
2021/10/20 03:30:35;;;;;;;;;;;;;;;;;;5114090;28;20302;-68
2021/10/20 03:33:02;;;;;;;;;;;;;;;;;;5114120;28;19935;-68
2021/10/20 03:35:28;;;;;;;;;;;;;;;;;;5114076;28;19934;-68
2021/10/20 03:37:54;;;;;;;;;;;;;;;;;;5114018;28;20374;-69
2021/10/20 03:40:21;;;;;;;;;;;;;;;;;;5114038;28;19931;-68
2021/10/20 03:42:47;;;;;;;;;;;;;;;;;;5114141;28;19953;-70
2021/10/20 03:45:15;;;;;;;;;;;;;;;;;;5113477;28;19969;-68
2021/10/20 03:47:42;;;;;;;;;;;;;;;;;;5114088;28;19932;-69
2021/10/20 03:50:08;;;;;;;;;;;;;;;;;;5113519;28;20499;-68
2021/10/20 03:52:34;;;;;;;;;;;;;;;;;;5113284;28;19924;-69
2021/10/20 03:55:00;;;;;;;;;;;;;;;;;;5113883;28;19924;-69
2021/10/20 03:57:27;;;;;;;;;;;;;;;;;;5113253;28;20378;-68
2021/10/20 03:59:53;;;;;;;;;;;;;;;;;;5113616;28;19924;-68
2021/10/20 04:02:19;;;;;;;;;;;;;;;;;;5113287;28;20018;-68
2021/10/20 04:04:46;;;;;;;;;;;;;;;;;;5113625;28;19923;-68
2021/10/20 04:07:12;;;;;;;;;;;;;;;;;;5113187;28;19927;-68
2021/10/20 04:09:38;;;;;;;;;;;;;;;;;;5113315;28;19930;-68
2021/10/20 04:12:05;;;;;;;;;;;;;;;;;;5113750;28;19924;-68
2021/10/20 04:14:31;;;;;;;;;;;;;;;;;;5113381;28;19946;-68
2021/10/20 04:16:57;;;;;;;;;;;;;;;;;;5113282;28;19930;-68
2021/10/20 04:19:23;;;;;;;;;;;;;;;;;;5112900;28;19923;-68
2021/10/20 04:21:50;;;;;;;;;;;;;;;;;;5113533;28;19923;-69
2021/10/20 04:24:16;;;;;;;;;;;;;;;;;;5112865;28;19927;-69
2021/10/20 04:26:42;;;;;;;;;;;;;;;;;;5113368;28;19961;-69
2021/10/20 04:29:09;;;;;;;;;;;;;;;;;;5112857;28;20394;-69
2021/10/20 04:31:35;;;;;;;;;;;;;;;;;;5113315;28;19936;-69
2021/10/20 04:34:01;;;;;;;;;;;;;;;;;;5113285;28;20009;-67
2021/10/20 04:36:28;;;;;;;;;;;;;;;;;;5112669;28;19939;-69
2021/10/20 04:38:54;;;;;;;;;;;;;;;;;;5113312;28;19931;-68
2021/10/20 04:41:20;;;;;;;;;;;;;;;;;;5113008;28;20301;-68
2021/10/20 04:43:46;;;;;;;;;;;;;;;;;;5112807;28;19950;-69
2021/10/20 04:46:13;;;;;;;;;;;;;;;;;;5112901;28;20290;-69
2021/10/20 04:48:39;;;;;;;;;;;;;;;;;;5112838;28;19997;-69
2021/10/20 04:51:05;;;;;;;;;;;;;;;;;;5112805;28;19924;-68
2021/10/20 04:53:32;;;;;;;;;;;;;;;;;;5112789;28;19924;-68
2021/10/20 04:55:59;;;;;;;;;;;;;;;;;;5113132;28;19928;-70
2021/10/20 04:58:25;;;;;;;;;;;;;;;;;;5112407;28;19924;-69
2021/10/20 05:00:51;;;;;;;;;;;;;;;;;;5113046;28;19931;-69
2021/10/20 05:03:17;;;;;;;;;;;;;;;;;;5112958;28;20289;-70
2021/10/20 05:05:44;;;;;;;;;;;;;;;;;;5116053;28;19923;-70
2021/10/20 05:08:10;;;;;;;;;;;;;;;;;;5116897;28;20004;-70
2021/10/20 05:10:36;;;;;;;;;;;;;;;;;;5117189;28;19924;-70
2021/10/20 05:13:03;;;;;;;;;;;;;;;;;;5116673;28;19927;-70
2021/10/20 05:15:29;;;;;;;;;;;;;;;;;;5116813;28;19930;-70
2021/10/20 05:17:55;;;;;;;;;;;;;;;;;;5116631;28;20369;-71
2021/10/20 05:20:22;;;;;;;;;;;;;;;;;;5116677;28;19924;-71
2021/10/20 05:22:48;;;;;;;;;;;;;;;;;;5116623;28;19930;-71
2021/10/20 05:25:14;;;;;;;;;;;;;;;;;;5116510;28;19924;-71
2021/10/20 05:27:40;;;;;;;;;;;;;;;;;;5116947;28;19930;-71
2021/10/20 05:30:07;;;;;;;;;;;;;;;;;;5116349;28;19924;-71
2021/10/20 05:32:33;;;;;;;;;;;;;;;;;;5115611;28;19928;-71
2021/10/20 05:34:59;;;;;;;;;;;;;;;;;;5115837;28;19923;-70
2021/10/20 05:37:26;;;;;;;;;;;;;;;;;;5116038;28;19931;-70
2021/10/20 05:39:53;;;;;;;;;;;;;;;;;;5116586;28;19930;-72
2021/10/20 05:42:19;;;;;;;;;;;;;;;;;;5116359;28;20011;-73
2021/10/20 05:44:45;;;;;;;;;;;;;;;;;;5116416;28;20394;-72
2021/10/20 05:47:11;;;;;;;;;;;;;;;;;;5115828;28;19923;-72
2021/10/20 05:49:38;;;;;;;;;;;;;;;;;;5116322;28;19931;-72
2021/10/20 05:52:04;;;;;;;;;;;;;;;;;;5116003;28;19943;-72
2021/10/20 05:54:30;;;;;;;;;;;;;;;;;;5115979;28;19923;-72
2021/10/20 05:56:57;;;;;;;;;;;;;;;;;;5116253;28;19973;-72
2021/10/20 05:59:23;;;;;;;;;;;;;;;;;;5114647;28;20370;-73
2021/10/20 06:01:50;;;;;;;;;;;;;;;;;;5114638;28;19924;-72
2021/10/20 06:04:16;;;;;;;;;;;;;;;;;;5114533;28;19969;-73
2021/10/20 06:06:43;;;;;;;;;;;;;;;;;;5114828;28;19931;-73
2021/10/20 06:09:09;;;;;;;;;;;;;;;;;;5114614;28;19928;-73
2021/10/20 06:11:35;;;;;;;;;;;;;;;;;;5114463;28;19924;-73
2021/10/20 06:14:02;;;;;;;;;;;;;;;;;;5114643;28;19923;-73
2021/10/20 06:16:28;;;;;;;;;;;;;;;;;;5114088;28;20018;-72
2021/10/20 06:18:54;;;;;;;;;;;;;;;;;;5114531;28;19947;-72
2021/10/20 06:21:20;;;;;;;;;;;;;;;;;;5113975;28;19931;-73
2021/10/20 06:23:47;;;;;;;;;;;;;;;;;;5114603;28;19931;-73
2021/10/20 06:26:13;;;;;;;;;;;;;;;;;;5113978;28;20374;-72
2021/10/20 06:28:39;;;;;;;;;;;;;;;;;;5114572;28;20278;-72
2021/10/20 06:31:06;;;;;;;;;;;;;;;;;;5114044;28;19924;-72
2021/10/20 06:33:32;;;;;;;;;;;;;;;;;;5113893;28;19930;-73
2021/10/20 06:36:00;;;;;;;;;;;;;;;;;;5114109;28;20385;-73
2021/10/20 06:38:26;;;;;;;;;;;;;;;;;;5114202;28;19930;-73
2021/10/20 06:40:52;;;;;;;;;;;;;;;;;;5113902;28;19930;-73
2021/10/20 06:43:19;;;;;;;;;;;;;;;;;;5113901;28;19931;-73
2021/10/20 06:45:45;;;;;;;;;;;;;;;;;;5114545;28;19973;-73
2021/10/20 06:48:11;;;;;;;;;;;;;;;;;;5113721;28;19924;-73
2021/10/20 06:50:38;;;;;;;;;;;;;;;;;;5113857;28;19924;-73
2021/10/20 06:53:04;;;;;;;;;;;;;;;;;;5113753;28;19923;-73
2021/10/20 06:55:31;;;;;;;;;;;;;;;;;;5113832;28;19924;-73
2021/10/20 06:57:57;;;;;;;;;;;;;;;;;;5040546;28;2073393;-73
2021/10/20 07:00:24;;;;;;;;;;;;;;;;;;5114514;28;19927;-73
2021/10/20 07:02:50;;;;;;;;;;;;;;;;;;5115103;28;19931;-73
2021/10/20 07:05:16;;;;;;;;;;;;;;;;;;5114317;28;19931;-73
2021/10/20 07:07:42;;;;;;;;;;;;;;;;;;5114282;28;19924;-73
2021/10/20 07:10:09;;;;;;;;;;;;;;;;;;5114633;28;19935;-73
2021/10/20 07:12:35;;;;;;;;;;;;;;;;;;5114851;28;19967;-73
2021/10/20 07:15:02;;;;;;;;;;;;;;;;;;5114412;28;20309;-73
2021/10/20 07:17:29;;;;;;;;;;;;;;;;;;5114443;28;19938;-73
2021/10/20 07:19:55;;;;;;;;;;;;;;;;;;5114292;28;20271;-73
2021/10/20 07:22:21;;;;;;;;;;;;;;;;;;5114108;28;19930;-73
2021/10/20 07:24:47;;;;;;;;;;;;;;;;;;5114553;28;19924;-73
2021/10/20 07:27:14;;;;;;;;;;;;;;;;;;5113018;28;19927;-73
2021/10/20 07:29:44;;;;;;;;;;;;;;;;;;5114487;28;19938;-73
2021/10/20 07:32:10;;;;;;;;;;;;;;;;;;5113890;28;19973;-73
2021/10/20 07:34:37;;;;;;;;;;;;;;;;;;5114267;28;19924;-71
2021/10/20 07:37:04;;;;;;;;;;;;;;;;;;5114019;28;19927;-73
2021/10/20 07:39:30;;;;;;;;;;;;;;;;;;5114076;28;19924;-73
2021/10/20 07:41:57;;;;;;;;;;;;;;;;;;5113945;28;20374;-73
2021/10/20 07:44:23;;;;;;;;;;;;;;;;;;5113500;28;19924;-73
2021/10/20 07:46:49;;;;;;;;;;;;;;;;;;5113872;28;19924;-73
2021/10/20 07:49:15;;;;;;;;;;;;;;;;;;5113841;28;19931;-73
2021/10/20 07:51:42;;;;;;;;;;;;;;;;;;5113726;28;19923;-73
2021/10/20 07:54:08;;;;;;;;;;;;;;;;;;5113758;28;19923;-73
2021/10/20 07:56:39;;;;;;;;;;;;;;;;;;5113849;28;19950;-73
2021/10/20 07:59:05;;;;;;;;;;;;;;;;;;5113532;28;20362;-73
2021/10/20 08:01:31;;;;;;;;;;;;;;;;;;5113286;28;19930;-73
2021/10/20 08:03:58;;;;;;;;;;;;;;;;;;5113800;28;19930;-73
2021/10/20 08:06:24;;;;;;;;;;;;;;;;;;5113172;28;19928;-72
2021/10/20 08:08:50;;;;;;;;;;;;;;;;;;5113317;28;19939;-72
2021/10/20 08:11:16;;;;;;;;;;;;;;;;;;5113370;28;19938;-72
2021/10/20 08:13:43;;;;;;;;;;;;;;;;;;5113438;28;19931;-71
2021/10/20 08:16:09;;;;;;;;;;;;;;;;;;5113514;28;19928;-71
2021/10/20 08:18:35;;;;;;;;;;;;;;;;;;5113613;28;20304;-71
2021/10/20 08:21:02;;;;;;;;;;;;;;;;;;5113241;28;19931;-70
2021/10/20 08:23:29;;;;;;;;;;;;;;;;;;5113124;28;19928;-71
2021/10/20 08:25:55;;;;;;;;;;;;;;;;;;5113189;28;20377;-71
2021/10/20 08:28:21;;;;;;;;;;;;;;;;;;5113178;28;19923;-69
2021/10/20 08:30:48;;;;;;;;;;;;;;;;;;5113067;28;20370;-69
2021/10/20 08:33:16;;;;;;;;;;;;;;;;;;5112793;28;19941;-70
2021/10/20 08:35:42;;;;;;;;;;;;;;;;;;5113326;28;19924;-70
2021/10/20 08:38:08;;;;;;;;;;;;;;;;;;5112568;28;19928;-70
2021/10/20 08:40:35;;;;;;;;;;;;;;;;;;5113263;28;19928;-70
2021/10/20 08:43:01;;;;;;;;;;;;;;;;;;5113240;28;20297;-70
2021/10/20 08:45:27;;;;;;;;;;;;;;;;;;5112932;28;19923;-70
2021/10/20 08:47:54;;;;;;;;;;;;;;;;;;5112762;28;20301;-70
2021/10/20 08:50:20;;;;;;;;;;;;;;;;;;5112607;28;19923;-69
2021/10/20 08:52:46;;;;;;;;;;;;;;;;;;5113164;28;19924;-69
2021/10/20 08:55:14;;;;;;;;;;;;;;;;;;5112475;28;20309;-69
2021/10/20 08:57:40;;;;;;;;;;;;;;;;;;5112966;28;20370;-69
2021/10/20 09:00:06;;;;;;;;;;;;;;;;;;5112805;28;19930;-69
2021/10/20 09:02:37;;;;;;;;;;;;;;;;;;5113255;28;19924;-69
2021/10/20 09:05:03;;;;;;;;;;;;;;;;;;5112881;28;19924;-70
2021/10/20 09:07:29;;;;;;;;;;;;;;;;;;5112668;28;19923;-70
2021/10/20 09:09:55;;;;;;;;;;;;;;;;;;5112633;28;19928;-70
2021/10/20 09:12:22;;;;;;;;;;;;;;;;;;5112721;28;19924;-71
2021/10/20 09:14:48;;;;;;;;;;;;;;;;;;5112553;28;20424;-70
2021/10/20 09:17:14;;;;;;;;;;;;;;;;;;5112347;28;19924;-70
2021/10/20 09:19:41;;;;;;;;;;;;;;;;;;5112481;28;19924;-70
2021/10/20 09:22:09;;;;;;;;;;;;;;;;;;5112877;28;19924;-70
2021/10/20 09:24:35;;;;;;;;;;;;;;;;;;5112806;28;19997;-69
2021/10/20 09:27:01;;;;;;;;;;;;;;;;;;5112319;28;20391;-70
2021/10/20 09:29:28;;;;;;;;;;;;;;;;;;5112286;28;20005;-70
2021/10/20 09:31:54;;;;;;;;;;;;;;;;;;5112562;28;19969;-69
2021/10/20 09:34:20;;;;;;;;;;;;;;;;;;5112414;28;19924;-70
2021/10/20 09:36:47;;;;;;;;;;;;;;;;;;5112654;28;20297;-70
2021/10/20 09:39:13;;;;;;;;;;;;;;;;;;5112295;28;19931;-70
2021/10/20 09:41:39;;;;;;;;;;;;;;;;;;5112876;28;19924;-70
2021/10/20 09:44:05;;;;;;;;;;;;;;;;;;5112907;28;19928;-69
2021/10/20 09:46:32;;;;;;;;;;;;;;;;;;5111959;28;19924;-69
2021/10/20 09:48:58;;;;;;;;;;;;;;;;;;5112547;28;19928;-70
2021/10/20 09:51:25;;;;;;;;;;;;;;;;;;5114740;28;20397;-70
2021/10/20 09:53:51;;;;;;;;;;;;;;;;;;5116111;28;19931;-69
2021/10/20 09:56:17;;;;;;;;;;;;;;;;;;5116137;28;19984;-70
2021/10/20 09:58:46;;;;;;;;;;;;;;;;;;5115840;28;20362;-70
2021/10/20 10:01:12;;;;;;;;;;;;;;;;;;5115759;27;20370;-70
2021/10/20 10:03:38;;;;;;;;;;;;;;;;;;5116155;28;19931;-70
2021/10/20 10:06:05;;;;;;;;;;;;;;;;;;5115879;28;20304;-70
2021/10/20 10:08:31;;;;;;;;;;;;;;;;;;5115371;28;19924;-70
2021/10/20 10:10:59;;;;;;;;;;;;;;;;;;5116173;28;19930;-70
2021/10/20 10:13:25;;;;;;;;;;;;;;;;;;5115566;28;20358;-70
2021/10/20 10:15:52;;;;;;;;;;;;;;;;;;5115763;28;20430;-70
2021/10/20 10:18:18;;;;;;;;;;;;;;;;;;5115373;28;19930;-70
2021/10/20 10:20:44;;;;;;;;;;;;;;;;;;5115779;28;19924;-70
2021/10/20 10:23:10;;;;;;;;;;;;;;;;;;5115191;28;20392;-70
2021/10/20 10:25:38;;;;;;;;;;;;;;;;;;5115439;28;20005;-70
2021/10/20 10:28:04;;;;;;;;;;;;;;;;;;5115733;28;20147;-70
2021/10/20 10:30:30;;;;;;;;;;;;;;;;;;5115406;28;19923;-70
2021/10/20 10:32:57;;;;;;;;;;;;;;;;;;5115586;28;19924;-70
2021/10/20 10:35:23;;;;;;;;;;;;;;;;;;5115269;28;20427;-68
2021/10/20 10:37:49;;;;;;;;;;;;;;;;;;5115530;28;19924;-70
2021/10/20 10:40:16;;;;;;;;;;;;;;;;;;5115475;28;20297;-68
2021/10/20 10:42:42;;;;;;;;;;;;;;;;;;5114948;28;19923;-68
2021/10/20 10:45:08;;;;;;;;;;;;;;;;;;5115217;28;19923;-70
2021/10/20 10:47:34;;;;;;;;;;;;;;;;;;5115249;28;19923;-69
2021/10/20 10:50:01;;;;;;;;;;;;;;;;;;5115234;28;19946;-68
2021/10/20 10:52:27;;;;;;;;;;;;;;;;;;5114741;28;19931;-69
2021/10/20 10:54:53;;;;;;;;;;;;;;;;;;5115234;28;19930;-70
2021/10/20 10:57:20;;;;;;;;;;;;;;;;;;5114886;28;19928;-68
2021/10/20 10:59:46;;;;;;;;;;;;;;;;;;5114554;28;20374;-68
2021/10/20 11:02:12;;;;;;;;;;;;;;;;;;5113622;28;19931;-68
2021/10/20 11:04:39;;;;;;;;;;;;;;;;;;5114753;28;20369;-70
2021/10/20 11:07:05;;;;;;;;;;;;;;;;;;5114563;28;19924;-68
2021/10/20 11:09:32;;;;;;;;;;;;;;;;;;5114576;28;19924;-69
2021/10/20 11:11:58;;;;;;;;;;;;;;;;;;5114563;28;20298;-68
2021/10/20 11:14:24;;;;;;;;;;;;;;;;;;5114297;28;19924;-69
2021/10/20 11:16:50;;;;;;;;;;;;;;;;;;5114835;28;19923;-70
2021/10/20 11:19:17;;;;;;;;;;;;;;;;;;5114014;28;19931;-71
2021/10/20 11:21:43;;;;;;;;;;;;;;;;;;5114706;28;19924;-69
2021/10/20 11:24:09;;;;;;;;;;;;;;;;;;5114089;28;20397;-69
2021/10/20 11:26:36;;;;;;;;;;;;;;;;;;5114278;28;19931;-69
2021/10/20 11:29:02;;;;;;;;;;;;;;;;;;5114346;28;19931;-70
2021/10/20 11:31:28;;;;;;;;;;;;;;;;;;5113943;28;19935;-70
2021/10/20 11:33:55;;;;;;;;;;;;;;;;;;5114140;28;19924;-70
2021/10/20 11:36:21;;;;;;;;;;;;;;;;;;5113812;28;19927;-70
2021/10/20 11:38:47;;;;;;;;;;;;;;;;;;5114273;28;19938;-70
2021/10/20 11:41:13;;;;;;;;;;;;;;;;;;5113940;28;19969;-70
2021/10/20 11:43:45;;;;;;;;;;;;;;;;;;5113960;28;19931;-70
2021/10/20 11:46:11;;;;;;;;;;;;;;;;;;5113650;28;19954;-70
2021/10/20 11:48:37;;;;;;;;;;;;;;;;;;5114025;28;19947;-70
2021/10/20 11:51:04;;;;;;;;;;;;;;;;;;5113739;28;19931;-70
2021/10/20 11:53:30;;;;;;;;;;;;;;;;;;5113368;28;19931;-70
2021/10/20 11:55:58;;;;;;;;;;;;;;;;;;5113979;28;19928;-70
2021/10/20 11:58:24;;;;;;;;;;;;;;;;;;5113440;28;19928;-70
2021/10/20 12:00:51;;;;;;;;;;;;;;;;;;5113916;28;19924;-70
2021/10/20 12:03:17;;;;;;;;;;;;;;;;;;5113455;28;19931;-70
2021/10/20 12:05:43;;;;;;;;;;;;;;;;;;5113734;28;20300;-70
2021/10/20 12:08:10;;;;;;;;;;;;;;;;;;5113043;28;19928;-70
2021/10/20 12:10:36;;;;;;;;;;;;;;;;;;5113744;28;20190;-70
2021/10/20 12:13:03;;;;;;;;;;;;;;;;;;5112996;28;19924;-70
2021/10/20 12:15:29;;;;;;;;;;;;;;;;;;5113307;28;19930;-70
2021/10/20 12:17:55;;;;;;;;;;;;;;;;;;5113260;28;20404;-70
2021/10/20 12:20:22;;;;;;;;;;;;;;;;;;5113048;28;19924;-71
2021/10/20 12:22:48;;;;;;;;;;;;;;;;;;5113589;28;20018;-70
2021/10/20 12:25:15;;;;;;;;;;;;;;;;;;5112921;28;20314;-70
2021/10/20 12:27:41;;;;;;;;;;;;;;;;;;5113260;28;19931;-71
2021/10/20 12:30:08;;;;;;;;;;;;;;;;;;5113163;28;19977;-71
2021/10/20 12:32:35;;;;;;;;;;;;;;;;;;5113118;28;19931;-71
2021/10/20 12:35:03;;;;;;;;;;;;;;;;;;5113431;28;19927;-71
2021/10/20 12:37:29;;;;;;;;;;;;;;;;;;5113001;28;19923;-71
2021/10/20 12:39:55;;;;;;;;;;;;;;;;;;5112914;28;20298;-71
2021/10/20 12:42:22;;;;;;;;;;;;;;;;;;5112750;28;19930;-71
2021/10/20 12:44:49;;;;;;;;;;;;;;;;;;5112911;28;19981;-71
2021/10/20 12:47:15;;;;;;;;;;;;;;;;;;5112866;28;19947;-71
2021/10/20 12:49:41;;;;;;;;;;;;;;;;;;5112891;28;19956;-71
2021/10/20 12:52:08;;;;;;;;;;;;;;;;;;5113052;28;19930;-71
2021/10/20 12:54:34;;;;;;;;;;;;;;;;;;5113214;28;19960;-71
2021/10/20 12:57:00;;;;;;;;;;;;;;;;;;5112918;28;19923;-71
2021/10/20 12:59:29;;;;;;;;;;;;;;;;;;5112531;28;19928;-71
2021/10/20 13:01:55;;;;;;;;;;;;;;;;;;5113015;28;19924;-71
2021/10/20 13:04:21;;;;;;;;;;;;;;;;;;5112430;28;20377;-71
2021/10/20 13:06:48;;;;;;;;;;;;;;;;;;5112660;28;19923;-72
2021/10/20 13:09:15;;;;;;;;;;;;;;;;;;5113160;28;19923;-71
2021/10/20 13:11:42;;;;;;;;;;;;;;;;;;5115501;28;19930;-71
2021/10/20 13:14:08;;;;;;;;;;;;;;;;;;5116001;28;20394;-71
2021/10/20 13:16:35;;;;;;;;;;;;;;;;;;5114181;28;19923;-71
2021/10/20 13:19:01;;;;;;;;;;;;;;;;;;5112898;28;19924;-71
2021/10/20 13:21:27;;;;;;;;;;;;;;;;;;5112222;28;20390;-71
2021/10/20 13:23:53;;;;;;;;;;;;;;;;;;5112538;28;19931;-71
2021/10/20 13:26:21;;;;;;;;;;;;;;;;;;5115145;28;19930;-72
2021/10/20 13:28:48;;;;;;;;;;;;;;;;;;5116460;28;20362;-71
2021/10/20 13:31:14;;;;;;;;;;;;;;;;;;5116279;28;19924;-72
2021/10/20 13:33:40;;;;;;;;;;;;;;;;;;5116773;28;19924;-72
2021/10/20 13:36:10;;;;;;;;;;;;;;;;;;5116390;28;19927;-72
2021/10/20 13:38:37;;;;;;;;;;;;;;;;;;5116667;28;19927;-72
2021/10/20 13:41:03;;;;;;;;;;;;;;;;;;5116708;28;19923;-72
2021/10/20 13:43:29;;;;;;;;;;;;;;;;;;5115968;28;19924;-72
2021/10/20 13:45:55;;;;;;;;;;;;;;;;;;5116433;28;19924;-72
2021/10/20 13:48:22;;;;;;;;;;;;;;;;;;5116234;28;20263;-72
2021/10/20 13:50:48;;;;;;;;;;;;;;;;;;5116085;28;19924;-72
2021/10/20 13:53:14;;;;;;;;;;;;;;;;;;5116149;28;19923;-72
2021/10/20 13:55:41;;;;;;;;;;;;;;;;;;5116015;28;20267;-72
2021/10/20 13:58:08;;;;;;;;;;;;;;;;;;5115884;28;19927;-72
2021/10/20 14:00:34;;;;;;;;;;;;;;;;;;5115938;28;19928;-72
2021/10/20 14:03:01;;;;;;;;;;;;;;;;;;5116176;28;19924;-72
2021/10/20 14:05:29;;;;;;;;;;;;;;;;;;5115683;28;20294;-71
2021/10/20 14:07:55;;;;;;;;;;;;;;;;;;5115983;28;19923;-71
2021/10/20 14:10:22;;;;;;;;;;;;;;;;;;5115480;28;20374;-71
2021/10/20 14:12:48;;;;;;;;;;;;;;;;;;5116068;28;19924;-72
2021/10/20 14:15:14;;;;;;;;;;;;;;;;;;5115850;28;19924;-72
2021/10/20 14:17:40;;;;;;;;;;;;;;;;;;5115645;28;20389;-72
2021/10/20 14:20:07;;;;;;;;;;;;;;;;;;5115672;28;19934;-72
2021/10/20 14:22:33;;;;;;;;;;;;;;;;;;5115706;28;20011;-72
2021/10/20 14:24:59;;;;;;;;;;;;;;;;;;5115808;28;19923;-72
2021/10/20 14:27:26;;;;;;;;;;;;;;;;;;5115284;28;19924;-72
2021/10/20 14:29:52;;;;;;;;;;;;;;;;;;5115319;28;19924;-72
2021/10/20 14:32:18;;;;;;;;;;;;;;;;;;5115539;28;19924;-72
2021/10/20 14:34:45;;;;;;;;;;;;;;;;;;5115538;28;19924;-72
2021/10/20 14:37:11;;;;;;;;;;;;;;;;;;5114735;28;19923;-73
2021/10/20 14:39:37;;;;;;;;;;;;;;;;;;5115200;28;19928;-72
2021/10/20 14:42:04;;;;;;;;;;;;;;;;;;5115111;28;19924;-72
2021/10/20 14:44:31;;;;;;;;;;;;;;;;;;5114892;27;20393;-71
2021/10/20 14:46:57;;;;;;;;;;;;;;;;;;5115078;28;19927;-71
2021/10/20 14:49:23;;;;;;;;;;;;;;;;;;5114919;28;19923;-71
2021/10/20 14:51:50;;;;;;;;;;;;;;;;;;5115245;28;20296;-71
2021/10/20 14:54:16;;;;;;;;;;;;;;;;;;5114748;28;19924;-71
2021/10/20 14:56:42;;;;;;;;;;;;;;;;;;5115265;28;19949;-71
2021/10/20 14:59:08;;;;;;;;;;;;;;;;;;5114527;28;19924;-74
2021/10/20 15:01:35;;;;;;;;;;;;;;;;;;5114778;28;19923;-71
2021/10/20 15:04:02;;;;;;;;;;;;;;;;;;5114769;28;19931;-71
2021/10/20 15:06:28;;;;;;;;;;;;;;;;;;5114540;28;19934;-73
2021/10/20 15:08:55;;;;;;;;;;;;;;;;;;5114892;28;19924;-73
2021/10/20 15:11:21;;;;;;;;;;;;;;;;;;5114350;28;20382;-72
2021/10/20 15:13:47;;;;;;;;;;;;;;;;;;5114801;28;19928;-73
2021/10/20 15:16:14;;;;;;;;;;;;;;;;;;5114612;28;19924;-74
2021/10/20 15:18:50;;;;;;;;;;;;;;;;;;5114381;28;19924;-71
2021/10/20 15:21:17;;;;;;;;;;;;;;;;;;5114307;28;19928;-73
2021/10/20 15:23:43;;;;;;;;;;;;;;;;;;5114182;28;20382;-71
2021/10/20 15:26:09;;;;;;;;;;;;;;;;;;5114408;28;20328;-72
2021/10/20 15:28:35;;;;;;;;;;;;;;;;;;5114109;28;19931;-68
2021/10/20 15:31:02;;;;;;;;;;;;;;;;;;5114399;28;19931;-69
2021/10/20 15:33:28;;;;;;;;;;;;;;;;;;5114110;28;19947;-71
2021/10/20 15:35:54;;;;;;;;;;;;;;;;;;5114441;28;19923;-70
2021/10/20 15:38:21;;;;;;;;;;;;;;;;;;5114083;28;19924;-71
2021/10/20 15:40:47;;;;;;;;;;;;;;;;;;5113951;28;20396;-71
2021/10/20 15:43:13;;;;;;;;;;;;;;;;;;5113969;28;19923;-71
2021/10/20 15:45:40;;;;;;;;;;;;;;;;;;5114103;28;19923;-73
2021/10/20 15:48:06;;;;;;;;;;;;;;;;;;5113101;28;20401;-70
2021/10/20 15:50:32;;;;;;;;;;;;;;;;;;5114354;27;19924;-71
2021/10/20 15:52:59;;;;;;;;;;;;;;;;;;5130125;27;20313;-70
2021/10/20 15:55:25;;;;;;;;;;;;;;;;;;5129751;27;19923;-70
2021/10/20 15:57:51;;;;;;;;;;;;;;;;;;5130905;27;19924;-71
2021/10/20 16:00:17;;;;;;;;;;;;;;;;;;5133474;27;19923;-70
2021/10/20 16:02:44;;;;;;;;;;;;;;;;;;5134177;27;20373;-71
2021/10/20 16:05:10;;;;;;;;;;;;;;;;;;5134189;27;19935;-71
2021/10/20 16:07:38;;;;;;;;;;;;;;;;;;5129809;27;19969;-71
2021/10/20 16:10:05;;;;;;;;;;;;;;;;;;5133971;27;19930;-70
2021/10/20 16:12:32;;;;;;;;;;;;;;;;;;5134141;27;20014;-70
2021/10/20 16:14:59;;;;;;;;;;;;;;;;;;5134007;27;19934;-70
2021/10/20 16:17:28;;;;;;;;;;;;;;;;;;5133850;27;19930;-70
2021/10/20 16:19:54;;;;;;;;;;;;;;;;;;5133894;27;19923;-70
2021/10/20 16:22:20;;;;;;;;;;;;;;;;;;5133657;27;19930;-70
2021/10/20 16:24:46;;;;;;;;;;;;;;;;;;5129934;27;19923;-70
2021/10/20 16:27:13;;;;;;;;;;;;;;;;;;5133541;27;19924;-70
2021/10/20 16:29:39;;;;;;;;;;;;;;;;;;5133850;27;19927;-70
2021/10/20 16:32:05;;;;;;;;;;;;;;;;;;5134104;27;20013;-70
2021/10/20 16:34:32;;;;;;;;;;;;;;;;;;5133335;27;19923;-70
2021/10/20 16:36:59;;;;;;;;;;;;;;;;;;5134016;27;19924;-70
2021/10/20 16:39:25;;;;;;;;;;;;;;;;;;5133339;27;19931;-70